Time;durP1;ratioP1;P1;durP2;ratioP2;P2;SDS_P1;SDS_P2;PMS_P1;PMS_P2;Temp;Humidity;BMP_temperature;BMP_pressure;BME280_temperature;BME280_humidity;BME280_pressure;Samples;Min_cycle;Max_cycle;Signal;HPM_P1;HPM_P2
2022/03/28 00:02:14;;;;;;;9.45;8.45;;;10.70;78.10;;;;;;4936873;29;20359;-69
2022/03/28 00:04:42;;;;;;;9.20;8.30;;;10.70;78.20;;;;;;4953451;29;20058;-69
2022/03/28 00:07:09;;;;;;;10.45;8.68;;;10.70;78.20;;;;;;4945675;29;20405;-70
2022/03/28 00:09:37;;;;;;;9.25;8.30;;;10.70;78.40;;;;;;4968333;28;20421;-69
2022/03/28 00:12:05;;;;;;;9.70;8.35;;;10.70;78.30;;;;;;4941708;28;20051;-69
2022/03/28 00:14:33;;;;;;;9.57;7.88;;;10.70;78.30;;;;;;4939303;29;20404;-69
2022/03/28 00:17:00;;;;;;;11.32;8.25;;;10.70;78.40;;;;;;4946832;29;20069;-69
2022/03/28 00:19:28;;;;;;;9.18;8.15;;;10.70;78.40;;;;;;4939148;28;20494;-69
2022/03/28 00:21:56;;;;;;;9.80;8.50;;;10.70;78.40;;;;;;4934370;29;20141;-69
2022/03/28 00:24:24;;;;;;;10.23;7.78;;;10.70;78.40;;;;;;4948702;29;20058;-69
2022/03/28 00:26:52;;;;;;;9.15;8.07;;;10.70;78.40;;;;;;4941686;29;20051;-69
2022/03/28 00:29:19;;;;;;;10.18;8.63;;;10.70;78.30;;;;;;4948412;29;20393;-69
2022/03/28 00:31:47;;;;;;;17.27;12.40;;;10.70;78.30;;;;;;4941670;29;20416;-70
2022/03/28 00:34:15;;;;;;;13.63;9.25;;;10.70;78.40;;;;;;4952657;29;20063;-68
2022/03/28 00:36:43;;;;;;;11.57;10.30;;;10.80;78.40;;;;;;4940166;28;20059;-70
2022/03/28 00:39:11;;;;;;;11.32;9.57;;;10.70;78.40;;;;;;4953271;29;20074;-70
2022/03/28 00:41:39;;;;;;;11.73;10.27;;;10.70;78.40;;;;;;4943479;29;20043;-70
2022/03/28 00:44:06;;;;;;;12.57;10.30;;;10.70;78.50;;;;;;4949459;29;20047;-69
2022/03/28 00:46:35;;;;;;;14.07;10.93;;;10.80;78.50;;;;;;4952417;28;20417;-69
2022/03/28 00:49:03;;;;;;;11.77;10.18;;;10.70;78.50;;;;;;4941674;29;20039;-69
2022/03/28 00:51:31;;;;;;;12.13;10.82;;;10.70;78.50;;;;;;4951753;29;20516;-70
2022/03/28 00:53:59;;;;;;;13.30;10.63;;;10.70;78.50;;;;;;4949567;29;20043;-69
2022/03/28 00:56:27;;;;;;;12.95;10.48;;;10.70;78.50;;;;;;4952399;28;20043;-69
2022/03/28 00:58:55;;;;;;;13.57;10.20;;;10.70;78.60;;;;;;4952052;29;20500;-69
2022/03/28 01:01:23;;;;;;;13.90;10.30;;;10.70;78.60;;;;;;4944995;29;20047;-69
2022/03/28 01:03:51;;;;;;;13.60;10.77;;;10.70;78.60;;;;;;4921233;29;20378;-69
2022/03/28 01:06:18;;;;;;;13.15;10.35;;;10.70;78.60;;;;;;4938659;29;20051;-68
2022/03/28 01:08:49;;;;;;;13.27;10.40;;;10.70;78.70;;;;;;4937884;29;20052;-69
2022/03/28 01:11:18;;;;;;;12.45;10.38;;;10.70;78.70;;;;;;4937934;29;20129;-69
2022/03/28 01:13:46;;;;;;;14.70;10.90;;;10.70;78.70;;;;;;4950689;29;20043;-69
2022/03/28 01:16:14;;;;;;;14.25;10.75;;;10.70;78.80;;;;;;4953017;29;20401;-69
2022/03/28 01:18:48;;;;;;;11.25;9.85;;;10.70;78.80;;;;;;4956047;29;20058;-69
2022/03/28 01:21:19;;;;;;;14.27;11.13;;;10.70;78.80;;;;;;4956161;28;20500;-69
2022/03/28 01:23:47;;;;;;;13.60;11.05;;;10.70;78.70;;;;;;4945865;29;20051;-69
2022/03/28 01:26:16;;;;;;;15.63;11.77;;;10.70;78.80;;;;;;4937531;29;20509;-69
2022/03/28 01:28:43;;;;;;;14.43;11.73;;;10.70;78.80;;;;;;4937482;29;20043;-70
2022/03/28 01:31:11;;;;;;;14.38;11.50;;;10.70;78.80;;;;;;4947594;29;20043;-70
2022/03/28 01:33:38;;;;;;;14.68;11.55;;;10.70;78.80;;;;;;4951065;29;20048;-70
2022/03/28 01:36:06;;;;;;;14.15;11.35;;;10.70;78.80;;;;;;4943557;29;20039;-70
2022/03/28 01:38:34;;;;;;;14.20;11.63;;;10.70;78.80;;;;;;4969292;28;20066;-70
2022/03/28 01:41:02;;;;;;;15.48;11.50;;;10.70;78.80;;;;;;4940141;29;20428;-70
2022/03/28 01:43:29;;;;;;;14.48;11.55;;;10.70;78.80;;;;;;4936860;29;20076;-70
2022/03/28 01:45:57;;;;;;;13.13;11.10;;;10.70;78.80;;;;;;4938315;29;20059;-70
2022/03/28 01:48:25;;;;;;;15.38;11.30;;;10.70;78.90;;;;;;4937237;29;20052;-69
2022/03/28 01:50:52;;;;;;;15.68;11.93;;;10.70;78.90;;;;;;4949564;29;20051;-69
2022/03/28 01:53:20;;;;;;;15.38;12.25;;;10.70;79.00;;;;;;4947807;29;20055;-69
2022/03/28 01:55:48;;;;;;;14.30;11.55;;;10.70;79.00;;;;;;4945865;29;20058;-69
2022/03/28 01:58:15;;;;;;;14.88;11.98;;;10.70;79.10;;;;;;4935553;29;20394;-70
2022/03/28 02:00:43;;;;;;;13.90;11.52;;;10.70;79.00;;;;;;4938253;29;20051;-70
2022/03/28 02:03:11;;;;;;;13.45;11.50;;;10.70;78.90;;;;;;4936870;29;20058;-70
2022/03/28 02:05:38;;;;;;;14.70;12.05;;;10.70;78.90;;;;;;4942785;29;20062;-70
2022/03/28 02:08:08;;;;;;;17.17;12.82;;;10.70;78.90;;;;;;4948126;28;20047;-69
2022/03/28 02:10:35;;;;;;;15.68;12.50;;;10.60;78.90;;;;;;4937097;29;20048;-70
2022/03/28 02:13:03;;;;;;;16.38;12.57;;;10.60;79.00;;;;;;4936162;29;20051;-69
2022/03/28 02:15:31;;;;;;;16.38;13.00;;;10.60;79.10;;;;;;4942054;29;20054;-75
2022/03/28 02:17:59;;;;;;;17.38;13.77;;;10.60;79.10;;;;;;4948848;29;20066;-69
2022/03/28 02:20:27;;;;;;;18.50;13.80;;;10.60;79.10;;;;;;4954565;28;20493;-68
2022/03/28 02:22:54;;;;;;;16.92;13.63;;;10.60;79.20;;;;;;4947384;29;20052;-68
2022/03/28 02:25:22;;;;;;;15.88;13.18;;;10.60;79.20;;;;;;4936296;29;20389;-71
2022/03/28 02:27:50;;;;;;;16.88;13.32;;;10.60;79.20;;;;;;4919958;29;20075;-68
2022/03/28 02:30:17;;;;;;;16.85;13.90;;;10.60;79.20;;;;;;4936527;29;20048;-68
2022/03/28 02:32:45;;;;;;;18.35;14.35;;;10.60;79.20;;;;;;4947971;29;20054;-69
2022/03/28 02:35:13;;;;;;;18.50;14.82;;;10.60;79.20;;;;;;4936323;29;20413;-69
2022/03/28 02:37:41;;;;;;;17.70;14.43;;;10.60;79.10;;;;;;4947919;29;20051;-70
2022/03/28 02:40:10;;;;;;;16.35;13.18;;;10.60;79.10;;;;;;4940313;29;20478;-70
2022/03/28 02:42:37;;;;;;;16.02;13.60;;;10.60;79.10;;;;;;4955284;29;20374;-69
2022/03/28 02:45:06;;;;;;;17.88;14.18;;;10.50;79.20;;;;;;4937768;28;20050;-69
2022/03/28 02:47:33;;;;;;;17.95;14.18;;;10.50;79.30;;;;;;4936258;29;20429;-69
2022/03/28 02:50:01;;;;;;;20.05;15.25;;;10.40;79.30;;;;;;4943887;29;20051;-69
2022/03/28 02:52:29;;;;;;;17.08;14.05;;;10.40;79.40;;;;;;4950997;29;20501;-68
2022/03/28 02:54:56;;;;;;;17.70;14.10;;;10.30;79.40;;;;;;4955020;29;20047;-69
2022/03/28 02:57:24;;;;;;;20.08;14.18;;;10.30;79.50;;;;;;4946195;29;20409;-69
2022/03/28 02:59:52;;;;;;;19.85;14.15;;;10.30;79.50;;;;;;4933958;29;20054;-70
2022/03/28 03:02:19;;;;;;;20.63;14.20;;;10.30;79.50;;;;;;4946700;29;20066;-69
2022/03/28 03:04:47;;;;;;;19.67;15.10;;;10.30;79.60;;;;;;4943679;29;20054;-69
2022/03/28 03:07:14;;;;;;;17.73;13.95;;;10.30;79.60;;;;;;4954224;29;20047;-69
2022/03/28 03:09:42;;;;;;;19.15;14.93;;;10.20;79.70;;;;;;4944022;29;20056;-69
2022/03/28 03:12:10;;;;;;;19.85;15.10;;;10.20;79.80;;;;;;4937072;29;20055;-69
2022/03/28 03:14:37;;;;;;;19.73;13.55;;;10.20;79.90;;;;;;4935644;29;20040;-69
2022/03/28 03:17:05;;;;;;;20.42;13.77;;;10.20;80.00;;;;;;4936928;29;20413;-69
2022/03/28 03:19:33;;;;;;;19.33;15.32;;;10.10;80.10;;;;;;4936344;29;20043;-69
2022/03/28 03:22:00;;;;;;;19.48;15.65;;;10.10;80.20;;;;;;4939797;29;20051;-69
2022/03/28 03:24:28;;;;;;;19.75;15.52;;;10.10;80.30;;;;;;4953829;29;20051;-71
2022/03/28 03:26:56;;;;;;;18.83;15.48;;;10.10;80.40;;;;;;4948747;29;20051;-69
2022/03/28 03:29:23;;;;;;;19.85;15.63;;;10.00;80.50;;;;;;4946408;29;20478;-69
2022/03/28 03:31:52;;;;;;;20.35;15.93;;;9.90;80.60;;;;;;4945902;29;20378;-69
2022/03/28 03:34:20;;;;;;;21.08;15.27;;;9.90;80.80;;;;;;4957429;28;20039;-69
2022/03/28 03:36:47;;;;;;;20.58;16.27;;;9.80;81.00;;;;;;4941940;29;20370;-69
2022/03/28 03:39:15;;;;;;;21.88;16.67;;;9.70;81.20;;;;;;4951093;29;20051;-69
2022/03/28 03:41:43;;;;;;;20.92;16.30;;;9.60;81.40;;;;;;4939717;29;20048;-69
2022/03/28 03:44:11;;;;;;;22.88;17.08;;;9.60;81.50;;;;;;4935522;29;20063;-69
2022/03/28 03:46:39;;;;;;;21.95;16.52;;;9.50;81.70;;;;;;4935052;29;20048;-69
2022/03/28 03:49:08;;;;;;;20.88;16.40;;;9.50;81.80;;;;;;4942795;29;20052;-69
2022/03/28 03:51:36;;;;;;;24.25;16.15;;;9.50;81.90;;;;;;4943862;29;20525;-69
2022/03/28 03:54:05;;;;;;;21.10;17.67;;;9.40;82.00;;;;;;4949327;29;20096;-69
2022/03/28 03:56:33;;;;;;;22.02;16.17;;;9.30;82.10;;;;;;4946609;29;20404;-69
2022/03/28 03:59:01;;;;;;;22.55;16.40;;;9.30;82.30;;;;;;4944810;29;20047;-68
2022/03/28 04:01:28;;;;;;;25.60;16.90;;;9.30;82.40;;;;;;4938725;29;20541;-68
2022/03/28 04:03:57;;;;;;;21.95;17.40;;;9.30;82.60;;;;;;4940207;29;20051;-69
2022/03/28 04:06:24;;;;;;;21.85;16.63;;;9.30;82.70;;;;;;4942115;29;20082;-68
2022/03/28 04:08:52;;;;;;;23.50;17.05;;;9.30;82.70;;;;;;4937679;29;20047;-69
2022/03/28 04:11:20;;;;;;;23.63;17.02;;;9.30;82.70;;;;;;4953594;29;20035;-69
2022/03/28 04:13:47;;;;;;;22.27;15.80;;;9.30;82.80;;;;;;4937087;29;20056;-69
2022/03/28 04:16:15;;;;;;;21.20;16.20;;;9.30;82.90;;;;;;4950034;29;20047;-69
2022/03/28 04:18:43;;;;;;;19.08;15.10;;;9.30;83.00;;;;;;4952038;29;20400;-69
2022/03/28 04:21:10;;;;;;;20.70;15.20;;;9.30;83.00;;;;;;4941881;29;20055;-69
2022/03/28 04:23:38;;;;;;;19.55;15.25;;;9.20;83.00;;;;;;4932615;29;20059;-69
2022/03/28 04:26:05;;;;;;;20.25;15.18;;;9.20;83.00;;;;;;4940771;29;20064;-69
2022/03/28 04:28:33;;;;;;;20.10;15.50;;;9.20;83.10;;;;;;4941228;29;20044;-69
2022/03/28 04:31:01;;;;;;;18.67;15.45;;;9.10;83.20;;;;;;4942216;29;20043;-68
2022/03/28 04:33:28;;;;;;;20.95;15.18;;;9.10;83.20;;;;;;4951079;29;20413;-69
2022/03/28 04:35:56;;;;;;;20.33;15.32;;;9.10;83.20;;;;;;4951184;29;20055;-68
2022/03/28 04:38:25;;;;;;;22.33;14.73;;;9.00;83.30;;;;;;4950686;29;20752;-69
2022/03/28 04:40:53;;;;;;;19.25;14.90;;;9.00;83.30;;;;;;4951647;29;20436;-68
2022/03/28 04:43:21;;;;;;;20.60;15.40;;;8.90;83.40;;;;;;4941602;29;20059;-69
2022/03/28 04:45:49;;;;;;;18.48;14.80;;;8.80;83.40;;;;;;4940194;29;20044;-68
2022/03/28 04:48:17;;;;;;;19.38;14.35;;;8.80;83.50;;;;;;4941731;29;20066;-69
2022/03/28 04:50:46;;;;;;;18.92;14.43;;;8.70;83.70;;;;;;4941857;29;20055;-69
2022/03/28 04:53:14;;;;;;;19.77;15.00;;;8.50;83.80;;;;;;4950351;29;20046;-68
2022/03/28 04:55:41;;;;;;;19.70;14.52;;;8.40;84.00;;;;;;4945822;29;20417;-69
2022/03/28 04:58:09;;;;;;;19.35;14.90;;;8.30;84.10;;;;;;4939558;29;20044;-69
2022/03/28 05:00:37;;;;;;;20.08;14.20;;;8.30;84.40;;;;;;4940575;29;20113;-69
2022/03/28 05:03:05;;;;;;;19.88;14.98;;;8.10;84.50;;;;;;4939782;29;20047;-70
2022/03/28 05:05:33;;;;;;;21.35;15.82;;;8.10;84.60;;;;;;4951831;29;20047;-69
2022/03/28 05:08:01;;;;;;;21.73;15.88;;;7.90;84.70;;;;;;4947697;29;20055;-70
2022/03/28 05:10:29;;;;;;;21.23;16.33;;;7.80;84.80;;;;;;4946945;29;20046;-69
2022/03/28 05:12:56;;;;;;;21.50;16.67;;;7.70;85.00;;;;;;4947832;29;20044;-69
2022/03/28 05:15:24;;;;;;;22.67;16.45;;;7.60;85.10;;;;;;4951186;29;20409;-69
2022/03/28 05:17:51;;;;;;;23.55;16.67;;;7.50;85.30;;;;;;4948473;29;20047;-69
2022/03/28 05:20:19;;;;;;;24.85;17.52;;;7.50;85.50;;;;;;4950151;29;20089;-69
2022/03/28 05:22:51;;;;;;;22.90;17.23;;;7.40;85.60;;;;;;4939750;29;20421;-69
2022/03/28 05:25:18;;;;;;;25.70;17.42;;;7.40;85.80;;;;;;4970754;28;20047;-69
2022/03/28 05:27:47;;;;;;;26.42;18.63;;;7.40;85.80;;;;;;4954657;29;20403;-69
2022/03/28 05:30:17;;;;;;;22.88;17.80;;;7.40;85.80;;;;;;4945328;29;20505;-69
2022/03/28 05:32:45;;;;;;;22.52;17.13;;;7.40;85.90;;;;;;4953280;29;20059;-69
2022/03/28 05:35:12;;;;;;;24.52;18.10;;;7.50;85.90;;;;;;4941190;29;20465;-69
2022/03/28 05:37:41;;;;;;;29.27;21.52;;;7.50;85.90;;;;;;4950637;29;20047;-69
2022/03/28 05:40:10;;;;;;;28.55;19.23;;;7.50;85.90;;;;;;4942200;29;20048;-69
2022/03/28 05:42:39;;;;;;;24.23;18.27;;;7.50;86.00;;;;;;4948779;28;20054;-69
2022/03/28 05:45:09;;;;;;;26.48;17.92;;;7.50;86.00;;;;;;4944987;29;20055;-69
2022/03/28 05:47:37;;;;;;;25.45;18.05;;;7.50;86.20;;;;;;4953402;29;20052;-69
2022/03/28 05:50:05;;;;;;;30.85;18.55;;;7.60;86.20;;;;;;4952420;29;20051;-69
2022/03/28 05:52:34;;;;;;;22.58;17.27;;;7.70;86.10;;;;;;4953744;29;20059;-69
2022/03/28 05:55:02;;;;;;;25.90;18.05;;;7.70;86.10;;;;;;4947993;29;20052;-69
2022/03/28 05:57:30;;;;;;;24.50;17.80;;;7.60;86.00;;;;;;4948807;29;20051;-69
2022/03/28 05:59:58;;;;;;;25.05;18.27;;;7.60;86.00;;;;;;4951791;29;20043;-69
2022/03/28 06:02:26;;;;;;;27.02;18.67;;;7.50;86.20;;;;;;4938513;29;20039;-69
2022/03/28 06:04:54;;;;;;;25.85;17.98;;;7.50;86.20;;;;;;4941455;29;20469;-68
2022/03/28 06:07:22;;;;;;;27.92;18.45;;;7.30;86.30;;;;;;4939134;29;20063;-69
2022/03/28 06:09:49;;;;;;;29.27;19.65;;;7.30;86.40;;;;;;4945231;29;20488;-68
2022/03/28 06:12:18;;;;;;;26.50;17.63;;;7.20;86.60;;;;;;4943631;29;20143;-68
2022/03/28 06:14:45;;;;;;;31.63;20.40;;;7.10;86.70;;;;;;4936831;29;20504;-68
2022/03/28 06:17:23;;;;;;;29.75;19.83;;;7.00;86.80;;;;;;4941527;29;20059;-68
2022/03/28 06:19:52;;;;;;;30.75;20.92;;;6.90;87.00;;;;;;4935137;29;20498;-68
2022/03/28 06:22:20;;;;;;;35.05;22.73;;;6.90;87.10;;;;;;4942823;29;20047;-73
2022/03/28 06:24:48;;;;;;;34.95;22.13;;;6.90;87.10;;;;;;4945744;29;20048;-69
2022/03/28 06:27:15;;;;;;;31.13;20.88;;;6.90;87.10;;;;;;4938737;29;20051;-68
2022/03/28 06:29:43;;;;;;;29.90;21.38;;;6.90;87.20;;;;;;4941068;29;20505;-67
2022/03/28 06:32:10;;;;;;;34.30;22.50;;;6.90;87.30;;;;;;4950622;29;20055;-68
2022/03/28 06:34:39;;;;;;;29.15;20.33;;;6.90;87.40;;;;;;4947624;29;20055;-67
2022/03/28 06:37:07;;;;;;;32.10;21.25;;;7.00;87.40;;;;;;4940687;29;20047;-67
2022/03/28 06:39:35;;;;;;;30.20;20.83;;;7.00;87.40;;;;;;4946651;29;20078;-68
2022/03/28 06:42:03;;;;;;;32.58;20.80;;;7.20;87.40;;;;;;4938435;29;20047;-68
2022/03/28 06:44:31;;;;;;;33.97;21.98;;;7.30;87.30;;;;;;4938000;29;20058;-68
2022/03/28 06:46:59;;;;;;;29.80;19.83;;;7.30;87.30;;;;;;4942323;29;20051;-68
2022/03/28 06:49:28;;;;;;;28.05;19.58;;;7.50;87.30;;;;;;4946194;29;20051;-68
2022/03/28 06:51:56;;;;;;;28.42;19.00;;;7.60;87.20;;;;;;4943710;29;20043;-68
2022/03/28 06:54:24;;;;;;;29.20;18.88;;;7.80;87.10;;;;;;4941893;29;20059;-68
2022/03/28 06:56:52;;;;;;;24.98;18.77;;;7.90;86.90;;;;;;4951151;29;20058;-68
2022/03/28 06:59:22;;;;;;;23.90;18.35;;;8.00;86.80;;;;;;4943126;29;20048;-68
2022/03/28 07:01:50;;;;;;;25.65;18.55;;;8.20;86.70;;;;;;4947229;29;20043;-68
2022/03/28 07:04:20;;;;;;;25.85;18.38;;;8.30;86.50;;;;;;4954278;29;20494;-68
2022/03/28 07:06:49;;;;;;;23.95;17.10;;;8.30;86.40;;;;;;4940170;29;20477;-68
2022/03/28 07:09:17;;;;;;;27.27;17.77;;;8.40;86.30;;;;;;4953992;29;20492;-68
2022/03/28 07:11:45;;;;;;;22.20;16.27;;;8.50;86.20;;;;;;4939598;29;20043;-68
2022/03/28 07:14:13;;;;;;;23.17;15.38;;;8.60;86.00;;;;;;4939179;29;20035;-68
2022/03/28 07:16:40;;;;;;;21.15;16.08;;;8.70;86.00;;;;;;4945435;29;20047;-68
2022/03/28 07:19:08;;;;;;;23.00;16.30;;;8.80;85.90;;;;;;4940868;29;20052;-68
2022/03/28 07:21:36;;;;;;;26.52;17.33;;;8.80;85.70;;;;;;4936651;29;20064;-67
2022/03/28 07:24:04;;;;;;;24.52;17.98;;;8.80;85.60;;;;;;4936671;29;20051;-68
2022/03/28 07:26:31;;;;;;;26.10;18.20;;;8.90;85.50;;;;;;4939739;29;20504;-67
2022/03/28 07:29:02;;;;;;;26.58;18.10;;;9.00;85.30;;;;;;4954331;29;20401;-67
2022/03/28 07:31:30;;;;;;;23.52;17.30;;;9.00;85.20;;;;;;4955200;28;20059;-67
2022/03/28 07:36:45;;;;;;;25.23;18.05;;;9.20;85.10;;;;;;4945313;29;20050;-68
2022/03/28 07:39:13;;;;;;;27.83;18.45;;;9.20;84.90;;;;;;4952905;29;20039;-68
2022/03/28 07:41:40;;;;;;;25.00;18.77;;;9.30;84.80;;;;;;4940351;29;20031;-68
2022/03/28 07:44:08;;;;;;;24.90;18.27;;;9.30;84.60;;;;;;4941155;29;20405;-68
2022/03/28 07:46:36;;;;;;;27.15;19.67;;;9.30;84.50;;;;;;4947917;29;20058;-67
2022/03/28 07:49:04;;;;;;;28.35;19.85;;;9.40;84.40;;;;;;4954061;29;20501;-68
2022/03/28 07:51:32;;;;;;;26.08;18.75;;;9.40;84.30;;;;;;4942357;29;20052;-68
2022/03/28 07:54:00;;;;;;;27.02;18.92;;;9.40;84.30;;;;;;4937301;29;20059;-68
2022/03/28 07:56:27;;;;;;;27.65;18.80;;;9.50;84.30;;;;;;4935158;29;20051;-69
2022/03/28 07:58:55;;;;;;;29.17;18.67;;;9.60;84.20;;;;;;4946428;29;20412;-69
2022/03/28 08:01:23;;;;;;;28.05;19.85;;;9.70;84.10;;;;;;4945258;29;20059;-69
2022/03/28 08:03:51;;;;;;;27.45;18.88;;;9.80;83.90;;;;;;4941679;29;20044;-69
2022/03/28 08:06:18;;;;;;;28.02;17.98;;;9.80;83.70;;;;;;4953674;28;20055;-69
2022/03/28 08:08:46;;;;;;;26.50;18.02;;;9.90;83.50;;;;;;4953428;28;20066;-69
2022/03/28 08:11:15;;;;;;;23.85;18.08;;;9.90;83.40;;;;;;4944468;29;20047;-69
2022/03/28 08:13:43;;;;;;;25.92;18.15;;;10.00;83.20;;;;;;4942246;29;20039;-70
2022/03/28 08:16:10;;;;;;;22.98;17.75;;;10.00;83.10;;;;;;4935333;29;20065;-67
2022/03/28 08:18:39;;;;;;;25.08;18.48;;;10.10;83.00;;;;;;4942383;29;20047;-67
2022/03/28 08:21:08;;;;;;;26.35;19.08;;;10.10;82.90;;;;;;4935422;29;20047;-67
2022/03/28 08:23:36;;;;;;;25.48;17.48;;;10.20;82.80;;;;;;4948129;28;20063;-67
2022/03/28 08:26:04;;;;;;;22.90;17.30;;;10.30;82.60;;;;;;4945114;29;20054;-68
2022/03/28 08:28:33;;;;;;;23.63;18.15;;;10.40;82.40;;;;;;4934722;29;20048;-68
2022/03/28 08:31:00;;;;;;;24.27;17.33;;;10.50;82.10;;;;;;4934934;29;20040;-68
2022/03/28 08:33:28;;;;;;;24.92;17.60;;;10.60;81.90;;;;;;4933317;29;20060;-68
2022/03/28 08:35:56;;;;;;;25.52;18.42;;;10.80;81.70;;;;;;4935638;29;20051;-68
2022/03/28 08:38:23;;;;;;;25.17;19.23;;;10.80;81.30;;;;;;4934196;29;20501;-68
2022/03/28 08:40:52;;;;;;;27.83;19.10;;;10.90;81.10;;;;;;4934924;29;20059;-68
2022/03/28 08:43:21;;;;;;;26.25;19.65;;;11.00;80.90;;;;;;4934230;29;20040;-69
2022/03/28 08:45:50;;;;;;;30.85;20.40;;;11.00;80.50;;;;;;4947737;29;20054;-68
2022/03/28 08:48:18;;;;;;;28.23;19.67;;;11.10;80.30;;;;;;4937313;29;20044;-68
2022/03/28 08:50:51;;;;;;;28.10;19.25;;;11.10;80.10;;;;;;4941356;29;20047;-68
2022/03/28 08:53:19;;;;;;;29.73;19.60;;;11.10;80.10;;;;;;4944584;29;20044;-67
2022/03/28 08:55:46;;;;;;;27.75;19.92;;;11.00;79.90;;;;;;4933510;29;20048;-68
2022/03/28 08:58:14;;;;;;;30.15;20.60;;;11.00;79.80;;;;;;4949217;29;20490;-68
2022/03/28 09:00:42;;;;;;;31.52;20.70;;;11.00;79.50;;;;;;4953662;29;20058;-67
2022/03/28 09:03:11;;;;;;;30.48;19.95;;;10.90;78.90;;;;;;4953535;29;20047;-68
2022/03/28 09:05:40;;;;;;;31.52;20.15;;;10.80;79.10;;;;;;4952914;29;20058;-68
2022/03/28 09:08:09;;;;;;;28.33;19.75;;;10.70;79.20;;;;;;4945668;29;20043;-67
2022/03/28 09:10:47;;;;;;;31.60;20.13;;;10.70;79.40;;;;;;4945073;28;20494;-68
2022/03/28 09:13:19;;;;;;;27.00;18.80;;;10.70;79.50;;;;;;4949626;29;20051;-69
2022/03/28 09:15:55;;;;;;;27.75;19.15;;;10.90;79.40;;;;;;4945461;29;20052;-68
2022/03/28 09:18:25;;;;;;;30.33;19.25;;;10.90;78.80;;;;;;4935109;29;20398;-68
2022/03/28 09:20:57;;;;;;;30.05;19.98;;;11.10;78.60;;;;;;4941185;29;20050;-69
2022/03/28 09:23:30;;;;;;;25.23;18.73;;;11.20;77.90;;;;;;4956837;29;20051;-69
2022/03/28 09:25:58;;;;;;;28.38;19.10;;;11.10;77.20;;;;;;4951557;29;20051;-69
2022/03/28 09:28:46;;;;;;;26.85;19.08;;;11.10;76.90;;;;;;4937648;29;20062;-69
2022/03/28 09:31:35;;;;;;;25.98;18.05;;;11.10;76.70;;;;;;4942919;29;20401;-69
2022/03/28 09:34:14;;;;;;;25.10;18.65;;;11.10;76.50;;;;;;4944031;29;20062;-69
2022/03/28 09:36:50;;;;;;;22.70;17.02;;;11.10;76.20;;;;;;4942324;29;20051;-70
2022/03/28 09:39:20;;;;;;;25.73;18.33;;;11.20;76.20;;;;;;4943772;29;20043;-70
2022/03/28 09:42:03;;;;;;;28.75;18.45;;;11.30;76.00;;;;;;4944616;29;20048;-67
2022/03/28 09:44:53;;;;;;;23.65;18.23;;;11.40;75.40;;;;;;4947234;29;20058;-69
2022/03/28 09:47:24;;;;;;;26.13;18.42;;;11.50;74.80;;;;;;4945380;29;20044;-69
2022/03/28 09:49:54;;;;;;;21.83;15.95;;;11.80;74.80;;;;;;4945187;28;20520;-68
2022/03/28 09:52:31;;;;;;;23.15;16.58;;;11.90;74.70;;;;;;4946010;29;20515;-68
2022/03/28 09:55:04;;;;;;;23.45;16.92;;;12.10;74.00;;;;;;4958391;28;20055;-68
2022/03/28 09:57:35;;;;;;;23.55;16.42;;;12.30;73.40;;;;;;4951560;29;20519;-68
2022/03/28 10:00:19;;;;;;;20.42;16.63;;;12.40;72.90;;;;;;4945731;29;20059;-68
2022/03/28 10:02:49;;;;;;;23.85;17.10;;;12.50;72.30;;;;;;4938713;29;20058;-69
2022/03/28 10:05:17;;;;;;;22.30;16.67;;;12.50;72.40;;;;;;4946822;29;20058;-68
2022/03/28 10:07:46;;;;;;;21.23;16.70;;;12.60;72.30;;;;;;4943003;29;20062;-68
2022/03/28 10:10:15;;;;;;;18.95;15.32;;;12.80;72.20;;;;;;4943583;29;20393;-70
2022/03/28 10:12:43;;;;;;;18.73;14.90;;;13.10;71.30;;;;;;4951099;29;20413;-69
2022/03/28 10:15:12;;;;;;;19.77;15.93;;;13.30;70.30;;;;;;4938915;29;20405;-69
2022/03/28 10:17:41;;;;;;;20.23;15.52;;;13.30;69.70;;;;;;4940869;29;20059;-67
2022/03/28 10:20:09;;;;;;;20.55;15.18;;;13.30;69.40;;;;;;4937361;29;20039;-67
2022/03/28 10:22:58;;;;;;;21.83;16.35;;;13.30;69.50;;;;;;4940338;29;20044;-69
2022/03/28 10:25:27;;;;;;;20.90;15.55;;;13.20;68.20;;;;;;4951038;29;20069;-69
2022/03/28 10:27:55;;;;;;;22.63;15.60;;;13.10;69.00;;;;;;4941869;29;20449;-67
2022/03/28 10:30:27;;;;;;;22.25;15.30;;;13.20;68.80;;;;;;4953001;29;20040;-69
2022/03/28 10:33:08;;;;;;;;;;;13.30;68.70;;;;;;4945009;29;20417;-67
2022/03/28 10:35:36;;;;;;;19.42;14.88;;;13.60;67.80;;;;;;4952140;29;19926;-68
2022/03/28 10:38:17;;;;;;;18.60;14.50;;;13.80;67.60;;;;;;4951001;29;20512;-68
2022/03/28 10:41:15;;;;;;;20.38;15.48;;;14.00;67.00;;;;;;4936548;29;20062;-67
2022/03/28 10:43:44;;;;;;;19.63;15.15;;;14.20;66.10;;;;;;4936200;29;20063;-68
2022/03/28 10:46:13;;;;;;;20.55;15.10;;;14.20;66.40;;;;;;4936494;29;20055;-68
2022/03/28 10:48:54;;;;;;;20.38;15.00;;;14.40;66.40;;;;;;4936348;29;20055;-68
2022/03/28 10:51:29;;;;;;;21.45;15.27;;;14.50;65.20;;;;;;4940258;29;20047;-68
2022/03/28 10:53:58;;;;;;;;;;;14.50;63.60;;;;;;4953709;29;20078;-68
2022/03/28 10:56:43;;;;;;;19.02;13.90;;;14.40;63.40;;;;;;4943810;29;19926;-68
2022/03/28 10:59:20;;;;;;;21.30;14.50;;;14.40;63.90;;;;;;4945885;29;20060;-67
2022/03/28 11:01:52;;;;;;;18.30;13.57;;;14.60;63.80;;;;;;4940945;29;20050;-68
2022/03/28 11:04:23;;;;;;;19.92;13.77;;;14.80;63.50;;;;;;4939712;29;20062;-68
2022/03/28 11:06:53;;;;;;;16.45;13.15;;;15.20;63.50;;;;;;4936134;29;20056;-68
2022/03/28 11:09:43;;;;;;;16.23;13.90;;;15.60;63.00;;;;;;4941776;29;20043;-68
2022/03/28 11:12:34;;;;;;;18.38;13.93;;;15.80;61.70;;;;;;4935731;29;20055;-68
2022/03/28 11:15:21;;;;;;;18.85;14.20;;;16.00;60.70;;;;;;4937079;29;20043;-68
2022/03/28 11:17:57;;;;;;;15.73;13.65;;;15.90;60.70;;;;;;4952395;29;20063;-67
2022/03/28 11:20:28;;;;;;;20.98;14.30;;;15.80;61.00;;;;;;4954218;29;20051;-68
2022/03/28 11:23:13;;;;;;;20.58;13.27;;;15.70;61.40;;;;;;4940803;29;20056;-68
2022/03/28 11:25:43;;;;;;;16.77;13.60;;;15.60;61.40;;;;;;4948042;29;20512;-68
2022/03/28 11:28:11;;;;;;;16.83;12.50;;;15.70;60.90;;;;;;4945793;29;20409;-68
2022/03/28 11:31:01;;;;;;;14.23;12.00;;;15.70;60.50;;;;;;4934323;29;20052;-68
2022/03/28 11:33:34;;;;;;;14.73;12.60;;;15.70;59.30;;;;;;4935327;29;20058;-68
2022/03/28 11:36:13;;;;;;;19.00;12.32;;;15.60;59.80;;;;;;4949825;29;20478;-69
2022/03/28 11:38:46;;;;;;;17.08;13.18;;;15.50;60.20;;;;;;4952940;29;20047;-68
2022/03/28 11:41:16;;;;;;;17.00;13.73;;;15.40;59.50;;;;;;4935360;29;20059;-68
2022/03/28 11:43:55;;;;;;;18.30;14.07;;;15.20;59.50;;;;;;4946149;28;20059;-68
2022/03/28 11:46:30;;;;;;;18.77;13.75;;;15.00;60.20;;;;;;4937391;29;20048;-68
2022/03/28 11:48:58;;;;;;;15.85;12.30;;;15.00;60.70;;;;;;4950192;29;20058;-68
2022/03/28 11:51:29;;;;;;;16.83;12.10;;;15.10;60.60;;;;;;4935764;29;20051;-69
2022/03/28 11:54:04;;;;;;;28.98;12.98;;;15.30;59.90;;;;;;4945465;29;20515;-68
2022/03/28 11:58:14;;;;;;;19.05;13.38;;;15.50;60.10;;;;;;4945680;29;20047;-68
2022/03/28 11:59:23;;;;;;;17.38;12.07;;;15.90;59.30;;;;;;4943998;29;20062;-68
2022/03/28 12:02:11;;;;;;;15.10;12.02;;;15.90;58.50;;;;;;4940653;29;20047;-68
2022/03/28 12:04:46;;;;;;;16.52;11.48;;;15.70;58.60;;;;;;4943697;29;20048;-69
2022/03/28 12:07:15;;;;;;;16.20;12.10;;;15.80;59.00;;;;;;4950973;29;20044;-69
2022/03/28 12:09:43;;;;;;;16.23;11.90;;;16.30;57.60;;;;;;4936510;28;20497;-68
2022/03/28 12:12:11;;;;;;;14.13;10.68;;;16.60;56.20;;;;;;4945366;29;20481;-69
2022/03/28 12:14:43;;;;;;;14.65;11.57;;;16.40;55.30;;;;;;4938727;29;20051;-68
2022/03/28 12:17:12;;;;;;;13.77;11.43;;;16.00;55.70;;;;;;4953420;29;20055;-68
2022/03/28 12:19:39;;;;;;;16.48;12.25;;;15.90;56.50;;;;;;4940049;29;20044;-69
2022/03/28 12:22:18;;;;;;;16.92;12.15;;;15.90;56.90;;;;;;4944562;29;20043;-68
2022/03/28 12:24:53;;;;;;;16.95;11.90;;;15.80;57.30;;;;;;4939030;29;20052;-68
2022/03/28 12:27:23;;;;;;;14.73;11.23;;;15.70;57.90;;;;;;4940484;29;20396;-69
2022/03/28 12:29:52;;;;;;;18.20;11.43;;;15.90;58.30;;;;;;4947997;29;20047;-69
2022/03/28 12:32:21;;;;;;;13.57;10.52;;;16.60;57.80;;;;;;4946127;29;20055;-68
2022/03/28 12:34:49;;;;;;;12.57;10.15;;;17.30;56.00;;;;;;4948584;29;20676;-69
2022/03/28 12:37:17;;;;;;;10.05;8.32;;;18.00;53.20;;;;;;4944095;29;20052;-68
2022/03/28 12:39:46;;;;;;;10.65;9.07;;;18.70;52.60;;;;;;4946451;29;20039;-69
2022/03/28 12:42:27;;;;;;;12.02;8.27;;;19.30;49.50;;;;;;4945559;29;20047;-69
2022/03/28 12:44:55;;;;;;;9.68;7.60;;;19.50;48.70;;;;;;4940349;29;20051;-69
2022/03/28 12:47:27;;;;;;;15.70;8.52;;;19.80;47.50;;;;;;4947458;29;20436;-69
2022/03/28 12:49:55;;;;;;;13.38;8.73;;;19.70;46.00;;;;;;4963733;28;20051;-69